sensor_id;sensor_type;location;lat;lon;timestamp;temperature;humidity
49413;DHT22;35493;50.276;9.372;2024-01-25T00:02:24;8.70;80.30
49413;DHT22;35493;50.276;9.372;2024-01-25T00:04:57;8.80;80.20
49413;DHT22;35493;50.276;9.372;2024-01-25T00:07:32;8.70;80.30
49413;DHT22;35493;50.276;9.372;2024-01-25T00:10:06;8.80;80.40
49413;DHT22;35493;50.276;9.372;2024-01-25T00:12:33;8.70;80.40
49413;DHT22;35493;50.276;9.372;2024-01-25T00:15:05;8.70;80.50
49413;DHT22;35493;50.276;9.372;2024-01-25T00:17:38;8.70;80.40
49413;DHT22;35493;50.276;9.372;2024-01-25T00:20:12;8.70;80.40
49413;DHT22;35493;50.276;9.372;2024-01-25T00:22:46;8.70;80.50
49413;DHT22;35493;50.276;9.372;2024-01-25T00:25:18;8.70;80.50
49413;DHT22;35493;50.276;9.372;2024-01-25T00:27:51;8.70;80.50
49413;DHT22;35493;50.276;9.372;2024-01-25T00:30:24;8.70;80.50
49413;DHT22;35493;50.276;9.372;2024-01-25T00:32:57;8.70;80.60
49413;DHT22;35493;50.276;9.372;2024-01-25T00:35:31;8.70;80.70
49413;DHT22;35493;50.276;9.372;2024-01-25T00:37:59;8.70;80.60
49413;DHT22;35493;50.276;9.372;2024-01-25T00:40:33;8.60;80.70
49413;DHT22;35493;50.276;9.372;2024-01-25T00:43:07;8.70;80.70
49413;DHT22;35493;50.276;9.372;2024-01-25T00:45:41;8.70;80.80
49413;DHT22;35493;50.276;9.372;2024-01-25T00:48:15;8.70;80.70
49413;DHT22;35493;50.276;9.372;2024-01-25T00:50:48;8.60;80.70
49413;DHT22;35493;50.276;9.372;2024-01-25T00:53:23;8.60;80.80
49413;DHT22;35493;50.276;9.372;2024-01-25T00:55:57;8.60;80.70
49413;DHT22;35493;50.276;9.372;2024-01-25T00:58:31;8.60;80.80
49413;DHT22;35493;50.276;9.372;2024-01-25T01:01:04;8.60;80.80
49413;DHT22;35493;50.276;9.372;2024-01-25T01:03:38;8.60;80.90
49413;DHT22;35493;50.276;9.372;2024-01-25T01:06:11;8.60;80.80
49413;DHT22;35493;50.276;9.372;2024-01-25T01:08:45;8.60;80.70
49413;DHT22;35493;50.276;9.372;2024-01-25T01:11:18;8.60;80.80
49413;DHT22;35493;50.276;9.372;2024-01-25T01:13:51;8.60;80.80
49413;DHT22;35493;50.276;9.372;2024-01-25T01:16:24;8.60;80.70
49413;DHT22;35493;50.276;9.372;2024-01-25T01:18:57;8.60;80.90
49413;DHT22;35493;50.276;9.372;2024-01-25T01:21:36;8.60;80.70
49413;DHT22;35493;50.276;9.372;2024-01-25T01:24:12;8.60;80.80
49413;DHT22;35493;50.276;9.372;2024-01-25T01:27:04;8.50;80.80
49413;DHT22;35493;50.276;9.372;2024-01-25T01:29:36;8.60;80.90
49413;DHT22;35493;50.276;9.372;2024-01-25T01:32:09;8.60;80.80
49413;DHT22;35493;50.276;9.372;2024-01-25T01:34:42;8.60;80.70
49413;DHT22;35493;50.276;9.372;2024-01-25T01:37:15;8.60;80.80
49413;DHT22;35493;50.276;9.372;2024-01-25T01:39:50;8.60;80.80
49413;DHT22;35493;50.276;9.372;2024-01-25T01:42:23;8.60;80.90
49413;DHT22;35493;50.276;9.372;2024-01-25T01:44:56;8.60;80.90
49413;DHT22;35493;50.276;9.372;2024-01-25T01:47:29;8.60;81.00
49413;DHT22;35493;50.276;9.372;2024-01-25T01:50:03;8.60;80.90
49413;DHT22;35493;50.276;9.372;2024-01-25T01:52:35;8.50;81.00
49413;DHT22;35493;50.276;9.372;2024-01-25T01:55:10;8.50;81.20
49413;DHT22;35493;50.276;9.372;2024-01-25T01:57:44;8.50;81.10
49413;DHT22;35493;50.276;9.372;2024-01-25T02:00:17;8.50;81.20
49413;DHT22;35493;50.276;9.372;2024-01-25T02:02:51;8.50;81.30
49413;DHT22;35493;50.276;9.372;2024-01-25T02:05:24;8.50;81.30
49413;DHT22;35493;50.276;9.372;2024-01-25T02:07:58;8.50;81.30
49413;DHT22;35493;50.276;9.372;2024-01-25T02:10:32;8.50;81.20
49413;DHT22;35493;50.276;9.372;2024-01-25T02:13:05;8.50;81.20
49413;DHT22;35493;50.276;9.372;2024-01-25T02:15:38;8.50;81.20
49413;DHT22;35493;50.276;9.372;2024-01-25T02:18:11;8.50;81.30
49413;DHT22;35493;50.276;9.372;2024-01-25T02:20:44;8.50;81.40
49413;DHT22;35493;50.276;9.372;2024-01-25T02:23:19;8.50;81.40
49413;DHT22;35493;50.276;9.372;2024-01-25T02:25:52;8.50;81.40
49413;DHT22;35493;50.276;9.372;2024-01-25T02:28:26;8.50;81.50
49413;DHT22;35493;50.276;9.372;2024-01-25T02:30:59;8.50;81.50
49413;DHT22;35493;50.276;9.372;2024-01-25T02:33:32;8.50;81.50
49413;DHT22;35493;50.276;9.372;2024-01-25T02:35:59;8.50;81.50
49413;DHT22;35493;50.276;9.372;2024-01-25T02:38:34;8.50;81.60
49413;DHT22;35493;50.276;9.372;2024-01-25T02:41:08;8.50;81.60
49413;DHT22;35493;50.276;9.372;2024-01-25T02:43:40;8.50;81.70
49413;DHT22;35493;50.276;9.372;2024-01-25T02:46:13;8.50;81.60
49413;DHT22;35493;50.276;9.372;2024-01-25T02:48:47;8.50;81.60
49413;DHT22;35493;50.276;9.372;2024-01-25T02:51:19;8.50;81.70
49413;DHT22;35493;50.276;9.372;2024-01-25T02:53:54;8.50;81.70
49413;DHT22;35493;50.276;9.372;2024-01-25T02:56:28;8.50;81.70
49413;DHT22;35493;50.276;9.372;2024-01-25T02:59:06;8.50;81.80
49413;DHT22;35493;50.276;9.372;2024-01-25T03:01:41;8.60;81.80
49413;DHT22;35493;50.276;9.372;2024-01-25T03:04:13;8.50;81.90
49413;DHT22;35493;50.276;9.372;2024-01-25T03:06:46;8.50;81.80
49413;DHT22;35493;50.276;9.372;2024-01-25T03:09:22;8.50;81.90
49413;DHT22;35493;50.276;9.372;2024-01-25T03:11:56;8.50;81.90
49413;DHT22;35493;50.276;9.372;2024-01-25T03:14:28;8.50;82.00
49413;DHT22;35493;50.276;9.372;2024-01-25T03:17:02;8.50;82.00
49413;DHT22;35493;50.276;9.372;2024-01-25T03:19:35;8.50;82.10
49413;DHT22;35493;50.276;9.372;2024-01-25T03:22:08;8.40;82.20
49413;DHT22;35493;50.276;9.372;2024-01-25T03:24:42;8.40;82.20
49413;DHT22;35493;50.276;9.372;2024-01-25T03:27:16;8.40;82.20
49413;DHT22;35493;50.276;9.372;2024-01-25T03:29:49;8.40;82.30
49413;DHT22;35493;50.276;9.372;2024-01-25T03:32:22;8.40;82.30
49413;DHT22;35493;50.276;9.372;2024-01-25T03:34:55;8.40;82.30
49413;DHT22;35493;50.276;9.372;2024-01-25T03:37:28;8.40;82.50
49413;DHT22;35493;50.276;9.372;2024-01-25T03:40:02;8.40;82.40
49413;DHT22;35493;50.276;9.372;2024-01-25T03:42:37;8.30;82.40
49413;DHT22;35493;50.276;9.372;2024-01-25T03:45:10;8.30;82.60
49413;DHT22;35493;50.276;9.372;2024-01-25T03:47:43;8.30;82.60
49413;DHT22;35493;50.276;9.372;2024-01-25T03:50:16;8.20;82.60
49413;DHT22;35493;50.276;9.372;2024-01-25T03:52:49;8.20;82.70
49413;DHT22;35493;50.276;9.372;2024-01-25T03:55:23;8.10;82.80
49413;DHT22;35493;50.276;9.372;2024-01-25T03:57:57;8.00;82.90
49413;DHT22;35493;50.276;9.372;2024-01-25T04:00:30;8.00;83.20
49413;DHT22;35493;50.276;9.372;2024-01-25T04:03:03;8.00;83.10
49413;DHT22;35493;50.276;9.372;2024-01-25T04:05:36;8.00;83.20
49413;DHT22;35493;50.276;9.372;2024-01-25T04:08:09;8.00;83.30
49413;DHT22;35493;50.276;9.372;2024-01-25T04:10:43;8.00;83.20
49413;DHT22;35493;50.276;9.372;2024-01-25T04:13:17;8.00;83.20
49413;DHT22;35493;50.276;9.372;2024-01-25T04:15:50;7.90;83.30
49413;DHT22;35493;50.276;9.372;2024-01-25T04:18:24;7.80;83.40
49413;DHT22;35493;50.276;9.372;2024-01-25T04:20:57;7.90;83.50
49413;DHT22;35493;50.276;9.372;2024-01-25T04:23:30;7.80;83.50
49413;DHT22;35493;50.276;9.372;2024-01-25T04:26:04;7.80;83.50
49413;DHT22;35493;50.276;9.372;2024-01-25T04:28:38;7.80;83.50
49413;DHT22;35493;50.276;9.372;2024-01-25T04:31:11;7.70;83.70
49413;DHT22;35493;50.276;9.372;2024-01-25T04:33:44;7.80;83.70
49413;DHT22;35493;50.276;9.372;2024-01-25T04:36:17;7.70;83.70
49413;DHT22;35493;50.276;9.372;2024-01-25T04:38:50;7.70;83.70
49413;DHT22;35493;50.276;9.372;2024-01-25T04:41:24;7.70;83.70
49413;DHT22;35493;50.276;9.372;2024-01-25T04:43:58;7.70;83.70
49413;DHT22;35493;50.276;9.372;2024-01-25T04:46:24;7.60;84.00
49413;DHT22;35493;50.276;9.372;2024-01-25T04:48:59;7.70;84.10
49413;DHT22;35493;50.276;9.372;2024-01-25T04:51:32;7.60;84.00
49413;DHT22;35493;50.276;9.372;2024-01-25T04:54:05;7.60;84.20
49413;DHT22;35493;50.276;9.372;2024-01-25T04:56:40;7.60;84.20
49413;DHT22;35493;50.276;9.372;2024-01-25T04:59:07;7.50;84.40
49413;DHT22;35493;50.276;9.372;2024-01-25T05:01:46;7.50;84.40
49413;DHT22;35493;50.276;9.372;2024-01-25T05:04:20;7.60;84.50
49413;DHT22;35493;50.276;9.372;2024-01-25T05:06:53;7.50;84.40
49413;DHT22;35493;50.276;9.372;2024-01-25T05:09:26;7.50;84.50
49413;DHT22;35493;50.276;9.372;2024-01-25T05:12:00;7.50;84.50
49413;DHT22;35493;50.276;9.372;2024-01-25T05:14:34;7.50;84.60
49413;DHT22;35493;50.276;9.372;2024-01-25T05:17:07;7.50;84.50
49413;DHT22;35493;50.276;9.372;2024-01-25T05:19:40;7.50;84.60
49413;DHT22;35493;50.276;9.372;2024-01-25T05:22:13;7.50;84.50
49413;DHT22;35493;50.276;9.372;2024-01-25T05:24:46;7.50;84.50
49413;DHT22;35493;50.276;9.372;2024-01-25T05:27:20;7.50;84.60
49413;DHT22;35493;50.276;9.372;2024-01-25T05:29:54;7.50;84.70
49413;DHT22;35493;50.276;9.372;2024-01-25T05:32:27;7.50;84.70
49413;DHT22;35493;50.276;9.372;2024-01-25T05:35:00;7.50;84.70
49413;DHT22;35493;50.276;9.372;2024-01-25T05:37:33;7.50;84.70
49413;DHT22;35493;50.276;9.372;2024-01-25T05:40:06;7.40;84.70
49413;DHT22;35493;50.276;9.372;2024-01-25T05:42:41;7.40;84.70
49413;DHT22;35493;50.276;9.372;2024-01-25T05:45:15;7.30;84.90
49413;DHT22;35493;50.276;9.372;2024-01-25T05:47:51;7.20;84.90
49413;DHT22;35493;50.276;9.372;2024-01-25T05:50:24;7.20;85.10
49413;DHT22;35493;50.276;9.372;2024-01-25T05:52:57;7.20;85.00
49413;DHT22;35493;50.276;9.372;2024-01-25T05:55:30;7.20;85.00
49413;DHT22;35493;50.276;9.372;2024-01-25T05:58:04;7.20;85.00
49413;DHT22;35493;50.276;9.372;2024-01-25T06:00:38;7.20;84.90
49413;DHT22;35493;50.276;9.372;2024-01-25T06:03:11;7.20;84.80
49413;DHT22;35493;50.276;9.372;2024-01-25T06:05:44;7.20;84.80
49413;DHT22;35493;50.276;9.372;2024-01-25T06:08:17;7.10;84.60
49413;DHT22;35493;50.276;9.372;2024-01-25T06:10:50;7.10;84.90
49413;DHT22;35493;50.276;9.372;2024-01-25T06:13:24;7.10;84.90
49413;DHT22;35493;50.276;9.372;2024-01-25T06:15:58;7.10;84.80
49413;DHT22;35493;50.276;9.372;2024-01-25T06:18:31;7.00;84.80
49413;DHT22;35493;50.276;9.372;2024-01-25T06:21:04;7.00;84.70
49413;DHT22;35493;50.276;9.372;2024-01-25T06:23:37;7.00;84.70
49413;DHT22;35493;50.276;9.372;2024-01-25T06:26:04;7.00;84.70
49413;DHT22;35493;50.276;9.372;2024-01-25T06:28:38;7.00;84.60
49413;DHT22;35493;50.276;9.372;2024-01-25T06:31:13;6.90;84.80
49413;DHT22;35493;50.276;9.372;2024-01-25T06:33:46;6.90;84.90
49413;DHT22;35493;50.276;9.372;2024-01-25T06:36:22;6.90;84.90
49413;DHT22;35493;50.276;9.372;2024-01-25T06:38:55;6.90;84.80
49413;DHT22;35493;50.276;9.372;2024-01-25T06:41:28;6.90;84.90
49413;DHT22;35493;50.276;9.372;2024-01-25T06:44:02;6.90;84.90
49413;DHT22;35493;50.276;9.372;2024-01-25T06:46:36;6.90;84.80
49413;DHT22;35493;50.276;9.372;2024-01-25T06:49:09;6.90;84.90
49413;DHT22;35493;50.276;9.372;2024-01-25T06:51:42;6.90;84.90
49413;DHT22;35493;50.276;9.372;2024-01-25T06:54:15;6.90;84.80
49413;DHT22;35493;50.276;9.372;2024-01-25T06:56:48;6.90;84.70
49413;DHT22;35493;50.276;9.372;2024-01-25T06:59:24;6.80;84.60
49413;DHT22;35493;50.276;9.372;2024-01-25T07:01:58;6.70;84.90
49413;DHT22;35493;50.276;9.372;2024-01-25T07:04:32;6.70;85.10
49413;DHT22;35493;50.276;9.372;2024-01-25T07:07:05;6.70;85.30
49413;DHT22;35493;50.276;9.372;2024-01-25T07:09:38;6.70;85.30
49413;DHT22;35493;50.276;9.372;2024-01-25T07:12:11;6.70;85.30
49413;DHT22;35493;50.276;9.372;2024-01-25T07:14:45;6.70;85.40
49413;DHT22;35493;50.276;9.372;2024-01-25T07:17:19;6.70;85.30
49413;DHT22;35493;50.276;9.372;2024-01-25T07:19:52;6.60;85.20
49413;DHT22;35493;50.276;9.372;2024-01-25T07:22:25;6.60;85.50
49413;DHT22;35493;50.276;9.372;2024-01-25T07:24:58;6.60;85.40
49413;DHT22;35493;50.276;9.372;2024-01-25T07:27:31;6.60;85.70
49413;DHT22;35493;50.276;9.372;2024-01-25T07:30:07;6.70;85.70
49413;DHT22;35493;50.276;9.372;2024-01-25T07:32:41;6.60;85.80
49413;DHT22;35493;50.276;9.372;2024-01-25T07:35:14;6.70;85.80
49413;DHT22;35493;50.276;9.372;2024-01-25T07:37:47;6.70;85.70
49413;DHT22;35493;50.276;9.372;2024-01-25T07:40:27;6.70;85.80
49413;DHT22;35493;50.276;9.372;2024-01-25T07:43:00;6.70;85.70
49413;DHT22;35493;50.276;9.372;2024-01-25T07:45:34;6.70;85.70
49413;DHT22;35493;50.276;9.372;2024-01-25T07:48:08;6.70;85.70
49413;DHT22;35493;50.276;9.372;2024-01-25T07:50:41;6.70;85.60
49413;DHT22;35493;50.276;9.372;2024-01-25T07:53:15;6.60;85.80
49413;DHT22;35493;50.276;9.372;2024-01-25T07:55:41;6.60;85.80
49413;DHT22;35493;50.276;9.372;2024-01-25T07:58:15;6.60;85.80
49413;DHT22;35493;50.276;9.372;2024-01-25T08:00:49;6.60;85.70
49413;DHT22;35493;50.276;9.372;2024-01-25T08:03:23;6.60;85.70
49413;DHT22;35493;50.276;9.372;2024-01-25T08:05:56;6.60;85.80
49413;DHT22;35493;50.276;9.372;2024-01-25T08:08:29;6.60;85.80
49413;DHT22;35493;50.276;9.372;2024-01-25T08:11:02;6.60;86.00
49413;DHT22;35493;50.276;9.372;2024-01-25T08:13:36;6.60;86.00
49413;DHT22;35493;50.276;9.372;2024-01-25T08:16:10;6.60;86.10
49413;DHT22;35493;50.276;9.372;2024-01-25T08:18:44;6.70;86.00
49413;DHT22;35493;50.276;9.372;2024-01-25T08:21:17;6.70;85.90
49413;DHT22;35493;50.276;9.372;2024-01-25T08:23:50;6.80;85.90
49413;DHT22;35493;50.276;9.372;2024-01-25T08:26:23;6.80;85.90
49413;DHT22;35493;50.276;9.372;2024-01-25T08:28:56;6.80;85.80
49413;DHT22;35493;50.276;9.372;2024-01-25T08:31:30;6.80;85.80
49413;DHT22;35493;50.276;9.372;2024-01-25T08:34:04;6.90;85.80
49413;DHT22;35493;50.276;9.372;2024-01-25T08:36:37;6.90;85.80
49413;DHT22;35493;50.276;9.372;2024-01-25T08:39:10;6.90;85.80
49413;DHT22;35493;50.276;9.372;2024-01-25T08:41:43;6.90;85.80
49413;DHT22;35493;50.276;9.372;2024-01-25T08:44:17;6.90;85.80
49413;DHT22;35493;50.276;9.372;2024-01-25T08:46:51;7.00;85.80
49413;DHT22;35493;50.276;9.372;2024-01-25T08:49:25;7.00;85.80
49413;DHT22;35493;50.276;9.372;2024-01-25T08:51:58;7.00;85.90
49413;DHT22;35493;50.276;9.372;2024-01-25T08:54:31;7.00;86.00
49413;DHT22;35493;50.276;9.372;2024-01-25T08:56:57;7.00;85.80
49413;DHT22;35493;50.276;9.372;2024-01-25T08:59:31;7.00;86.10
49413;DHT22;35493;50.276;9.372;2024-01-25T09:02:06;7.10;86.00
49413;DHT22;35493;50.276;9.372;2024-01-25T09:04:40;7.10;86.00
49413;DHT22;35493;50.276;9.372;2024-01-25T09:07:15;7.10;85.90
49413;DHT22;35493;50.276;9.372;2024-01-25T09:09:48;7.20;85.70
49413;DHT22;35493;50.276;9.372;2024-01-25T09:12:21;7.20;85.70
49413;DHT22;35493;50.276;9.372;2024-01-25T09:14:54;7.30;85.90
49413;DHT22;35493;50.276;9.372;2024-01-25T09:17:28;7.30;85.60
49413;DHT22;35493;50.276;9.372;2024-01-25T09:20:02;7.30;85.80
49413;DHT22;35493;50.276;9.372;2024-01-25T09:22:36;7.40;85.80
49413;DHT22;35493;50.276;9.372;2024-01-25T09:25:09;7.40;85.60
49413;DHT22;35493;50.276;9.372;2024-01-25T09:27:43;7.50;85.50
49413;DHT22;35493;50.276;9.372;2024-01-25T09:30:16;7.50;85.60
49413;DHT22;35493;50.276;9.372;2024-01-25T09:32:50;7.60;85.50
49413;DHT22;35493;50.276;9.372;2024-01-25T09:35:30;7.70;85.20
49413;DHT22;35493;50.276;9.372;2024-01-25T09:38:03;7.80;85.20
49413;DHT22;35493;50.276;9.372;2024-01-25T09:40:36;7.80;84.90
49413;DHT22;35493;50.276;9.372;2024-01-25T09:43:02;8.00;84.80
49413;DHT22;35493;50.276;9.372;2024-01-25T09:45:36;8.00;84.70
49413;DHT22;35493;50.276;9.372;2024-01-25T09:48:10;8.10;84.60
49413;DHT22;35493;50.276;9.372;2024-01-25T09:50:44;8.10;84.40
49413;DHT22;35493;50.276;9.372;2024-01-25T09:53:20;8.20;84.20
49413;DHT22;35493;50.276;9.372;2024-01-25T09:55:56;8.20;83.90
49413;DHT22;35493;50.276;9.372;2024-01-25T09:58:34;8.20;83.90
49413;DHT22;35493;50.276;9.372;2024-01-25T10:01:09;8.30;83.60
49413;DHT22;35493;50.276;9.372;2024-01-25T10:03:44;8.30;83.60
49413;DHT22;35493;50.276;9.372;2024-01-25T10:06:18;8.30;83.50
49413;DHT22;35493;50.276;9.372;2024-01-25T10:08:52;8.40;83.40
49413;DHT22;35493;50.276;9.372;2024-01-25T10:11:26;8.40;83.30
49413;DHT22;35493;50.276;9.372;2024-01-25T10:14:01;8.50;83.30
49413;DHT22;35493;50.276;9.372;2024-01-25T10:16:35;8.50;83.10
49413;DHT22;35493;50.276;9.372;2024-01-25T10:19:09;8.60;83.00
49413;DHT22;35493;50.276;9.372;2024-01-25T10:21:43;8.60;82.90
49413;DHT22;35493;50.276;9.372;2024-01-25T10:24:16;8.60;82.80
49413;DHT22;35493;50.276;9.372;2024-01-25T10:26:42;8.60;82.80
49413;DHT22;35493;50.276;9.372;2024-01-25T10:29:16;8.60;82.70
49413;DHT22;35493;50.276;9.372;2024-01-25T10:31:49;8.70;82.50
49413;DHT22;35493;50.276;9.372;2024-01-25T10:34:23;8.80;82.30
49413;DHT22;35493;50.276;9.372;2024-01-25T10:36:58;8.80;82.00
49413;DHT22;35493;50.276;9.372;2024-01-25T10:39:31;8.90;81.90
49413;DHT22;35493;50.276;9.372;2024-01-25T10:42:04;8.90;81.70
49413;DHT22;35493;50.276;9.372;2024-01-25T10:44:38;8.90;81.50
49413;DHT22;35493;50.276;9.372;2024-01-25T10:47:11;8.90;81.50
49413;DHT22;35493;50.276;9.372;2024-01-25T10:49:47;8.90;81.40
49413;DHT22;35493;50.276;9.372;2024-01-25T10:52:21;8.90;81.20
49413;DHT22;35493;50.276;9.372;2024-01-25T10:54:54;9.00;81.20
49413;DHT22;35493;50.276;9.372;2024-01-25T10:57:28;9.00;81.10
49413;DHT22;35493;50.276;9.372;2024-01-25T11:00:08;9.00;81.10
49413;DHT22;35493;50.276;9.372;2024-01-25T11:02:42;9.20;80.70
49413;DHT22;35493;50.276;9.372;2024-01-25T11:05:17;9.20;80.40
49413;DHT22;35493;50.276;9.372;2024-01-25T11:07:52;9.30;80.10
49413;DHT22;35493;50.276;9.372;2024-01-25T11:10:27;9.30;79.80
49413;DHT22;35493;50.276;9.372;2024-01-25T11:13:01;9.40;79.70
49413;DHT22;35493;50.276;9.372;2024-01-25T11:15:36;9.40;79.60
49413;DHT22;35493;50.276;9.372;2024-01-25T11:18:10;9.40;79.50
49413;DHT22;35493;50.276;9.372;2024-01-25T11:20:47;9.50;79.20
49413;DHT22;35493;50.276;9.372;2024-01-25T11:23:21;9.50;78.80
49413;DHT22;35493;50.276;9.372;2024-01-25T11:25:54;9.40;79.30
49413;DHT22;35493;50.276;9.372;2024-01-25T11:28:27;9.40;79.00
49413;DHT22;35493;50.276;9.372;2024-01-25T11:31:00;9.40;79.10
49413;DHT22;35493;50.276;9.372;2024-01-25T11:33:33;9.50;78.90
49413;DHT22;35493;50.276;9.372;2024-01-25T11:36:22;9.50;78.80
49413;DHT22;35493;50.276;9.372;2024-01-25T11:38:55;9.50;78.90
49413;DHT22;35493;50.276;9.372;2024-01-25T11:41:35;9.60;78.80
49413;DHT22;35493;50.276;9.372;2024-01-25T11:44:09;9.60;78.50
49413;DHT22;35493;50.276;9.372;2024-01-25T11:46:42;9.60;78.10
49413;DHT22;35493;50.276;9.372;2024-01-25T11:49:15;9.60;78.00
49413;DHT22;35493;50.276;9.372;2024-01-25T11:51:49;9.60;77.70
49413;DHT22;35493;50.276;9.372;2024-01-25T11:54:23;9.60;77.40
49413;DHT22;35493;50.276;9.372;2024-01-25T11:56:56;9.70;77.10
49413;DHT22;35493;50.276;9.372;2024-01-25T11:59:29;9.70;77.00
49413;DHT22;35493;50.276;9.372;2024-01-25T12:02:02;9.80;76.70
49413;DHT22;35493;50.276;9.372;2024-01-25T12:04:36;9.90;76.40
49413;DHT22;35493;50.276;9.372;2024-01-25T12:07:10;9.90;75.80
49413;DHT22;35493;50.276;9.372;2024-01-25T12:09:44;9.90;75.40
49413;DHT22;35493;50.276;9.372;2024-01-25T12:12:17;9.90;74.60
49413;DHT22;35493;50.276;9.372;2024-01-25T12:14:50;9.90;75.00
49413;DHT22;35493;50.276;9.372;2024-01-25T12:17:25;9.90;74.80
49413;DHT22;35493;50.276;9.372;2024-01-25T12:19:59;9.90;74.30
49413;DHT22;35493;50.276;9.372;2024-01-25T12:22:34;9.90;74.90
49413;DHT22;35493;50.276;9.372;2024-01-25T12:25:08;9.90;74.90
49413;DHT22;35493;50.276;9.372;2024-01-25T12:27:45;9.80;75.10
49413;DHT22;35493;50.276;9.372;2024-01-25T12:30:21;9.80;75.40
49413;DHT22;35493;50.276;9.372;2024-01-25T12:32:54;9.80;75.30
49413;DHT22;35493;50.276;9.372;2024-01-25T12:35:27;9.80;75.30
49413;DHT22;35493;50.276;9.372;2024-01-25T12:38:01;9.90;74.90
49413;DHT22;35493;50.276;9.372;2024-01-25T12:40:35;9.90;75.20
49413;DHT22;35493;50.276;9.372;2024-01-25T12:43:08;9.90;75.20
49413;DHT22;35493;50.276;9.372;2024-01-25T12:45:41;9.80;75.10
49413;DHT22;35493;50.276;9.372;2024-01-25T12:48:14;9.80;75.40
49413;DHT22;35493;50.276;9.372;2024-01-25T12:50:47;9.80;75.20
49413;DHT22;35493;50.276;9.372;2024-01-25T12:53:21;9.80;75.20
49413;DHT22;35493;50.276;9.372;2024-01-25T12:55:55;9.90;75.40
49413;DHT22;35493;50.276;9.372;2024-01-25T12:58:28;10.00;74.90
49413;DHT22;35493;50.276;9.372;2024-01-25T13:01:01;10.00;74.90
49413;DHT22;35493;50.276;9.372;2024-01-25T13:03:34;10.10;75.00
49413;DHT22;35493;50.276;9.372;2024-01-25T13:06:07;10.10;74.40
49413;DHT22;35493;50.276;9.372;2024-01-25T13:08:41;10.10;74.50
49413;DHT22;35493;50.276;9.372;2024-01-25T13:11:15;10.10;74.10
49413;DHT22;35493;50.276;9.372;2024-01-25T13:13:48;10.10;74.30
49413;DHT22;35493;50.276;9.372;2024-01-25T13:16:23;10.10;73.30
49413;DHT22;35493;50.276;9.372;2024-01-25T13:18:56;10.10;73.90
49413;DHT22;35493;50.276;9.372;2024-01-25T13:21:29;10.10;73.80
49413;DHT22;35493;50.276;9.372;2024-01-25T13:24:03;10.10;73.50
49413;DHT22;35493;50.276;9.372;2024-01-25T13:26:37;10.20;73.40
49413;DHT22;35493;50.276;9.372;2024-01-25T13:29:10;10.20;73.10
49413;DHT22;35493;50.276;9.372;2024-01-25T13:31:45;10.20;73.40
49413;DHT22;35493;50.276;9.372;2024-01-25T13:34:13;10.10;73.00
49413;DHT22;35493;50.276;9.372;2024-01-25T13:36:46;10.20;72.80
49413;DHT22;35493;50.276;9.372;2024-01-25T13:39:20;10.10;73.00
49413;DHT22;35493;50.276;9.372;2024-01-25T13:41:54;10.10;72.90
49413;DHT22;35493;50.276;9.372;2024-01-25T13:44:28;10.00;72.70
49413;DHT22;35493;50.276;9.372;2024-01-25T13:47:01;10.00;72.60
49413;DHT22;35493;50.276;9.372;2024-01-25T13:49:34;10.00;73.00
49413;DHT22;35493;50.276;9.372;2024-01-25T13:52:07;9.90;73.00
49413;DHT22;35493;50.276;9.372;2024-01-25T13:54:50;10.00;73.10
49413;DHT22;35493;50.276;9.372;2024-01-25T13:57:24;9.90;73.60
49413;DHT22;35493;50.276;9.372;2024-01-25T13:59:57;9.90;73.60
49413;DHT22;35493;50.276;9.372;2024-01-25T14:02:31;9.90;73.30
49413;DHT22;35493;50.276;9.372;2024-01-25T14:05:04;9.90;73.50
49413;DHT22;35493;50.276;9.372;2024-01-25T14:07:45;9.90;73.60
49413;DHT22;35493;50.276;9.372;2024-01-25T14:10:19;9.90;73.80
49413;DHT22;35493;50.276;9.372;2024-01-25T14:12:53;9.80;74.30
49413;DHT22;35493;50.276;9.372;2024-01-25T14:15:26;9.80;74.10
49413;DHT22;35493;50.276;9.372;2024-01-25T14:17:59;9.80;74.20
49413;DHT22;35493;50.276;9.372;2024-01-25T14:20:32;9.80;74.50
49413;DHT22;35493;50.276;9.372;2024-01-25T14:23:06;9.70;74.40
49413;DHT22;35493;50.276;9.372;2024-01-25T14:25:40;9.70;74.60
49413;DHT22;35493;50.276;9.372;2024-01-25T14:28:14;9.70;74.50
49413;DHT22;35493;50.276;9.372;2024-01-25T14:30:47;9.70;74.70
49413;DHT22;35493;50.276;9.372;2024-01-25T14:33:20;9.70;74.90
49413;DHT22;35493;50.276;9.372;2024-01-25T14:35:53;9.70;74.70
49413;DHT22;35493;50.276;9.372;2024-01-25T14:38:26;9.70;74.80
49413;DHT22;35493;50.276;9.372;2024-01-25T14:41:00;9.70;75.10
49413;DHT22;35493;50.276;9.372;2024-01-25T14:43:34;9.70;75.20
49413;DHT22;35493;50.276;9.372;2024-01-25T14:46:07;9.70;75.30
49413;DHT22;35493;50.276;9.372;2024-01-25T14:48:40;9.60;75.20
49413;DHT22;35493;50.276;9.372;2024-01-25T14:51:13;9.60;75.50
49413;DHT22;35493;50.276;9.372;2024-01-25T14:53:46;9.60;75.30
49413;DHT22;35493;50.276;9.372;2024-01-25T14:56:20;9.60;75.50
49413;DHT22;35493;50.276;9.372;2024-01-25T14:58:54;9.50;75.60
49413;DHT22;35493;50.276;9.372;2024-01-25T15:01:27;9.50;76.00
49413;DHT22;35493;50.276;9.372;2024-01-25T15:04:02;9.50;76.00
49413;DHT22;35493;50.276;9.372;2024-01-25T15:06:29;9.50;75.90
49413;DHT22;35493;50.276;9.372;2024-01-25T15:09:03;9.40;76.00
49413;DHT22;35493;50.276;9.372;2024-01-25T15:11:37;9.40;76.30
49413;DHT22;35493;50.276;9.372;2024-01-25T15:14:12;9.40;76.20
49413;DHT22;35493;50.276;9.372;2024-01-25T15:16:45;9.40;76.50
49413;DHT22;35493;50.276;9.372;2024-01-25T15:19:20;9.40;76.20
49413;DHT22;35493;50.276;9.372;2024-01-25T15:21:53;9.30;76.50
49413;DHT22;35493;50.276;9.372;2024-01-25T15:24:26;9.30;76.80
49413;DHT22;35493;50.276;9.372;2024-01-25T15:27:04;9.30;76.80
49413;DHT22;35493;50.276;9.372;2024-01-25T15:29:39;9.30;77.10
49413;DHT22;35493;50.276;9.372;2024-01-25T15:32:12;9.30;76.90
49413;DHT22;35493;50.276;9.372;2024-01-25T15:34:52;9.20;77.30
49413;DHT22;35493;50.276;9.372;2024-01-25T15:37:25;9.20;77.30
49413;DHT22;35493;50.276;9.372;2024-01-25T15:39:58;9.20;77.20
49413;DHT22;35493;50.276;9.372;2024-01-25T15:42:32;9.10;77.40
49413;DHT22;35493;50.276;9.372;2024-01-25T15:45:06;9.10;77.70
49413;DHT22;35493;50.276;9.372;2024-01-25T15:47:40;9.10;77.60
49413;DHT22;35493;50.276;9.372;2024-01-25T15:50:15;9.10;77.80
49413;DHT22;35493;50.276;9.372;2024-01-25T15:52:51;9.00;77.80
49413;DHT22;35493;50.276;9.372;2024-01-25T15:55:25;9.00;77.90
49413;DHT22;35493;50.276;9.372;2024-01-25T15:57:53;8.90;78.00
49413;DHT22;35493;50.276;9.372;2024-01-25T16:00:26;8.90;78.20
49413;DHT22;35493;50.276;9.372;2024-01-25T16:02:59;8.80;78.50
49413;DHT22;35493;50.276;9.372;2024-01-25T16:05:32;8.80;78.70
49413;DHT22;35493;50.276;9.372;2024-01-25T16:08:05;8.70;78.70
49413;DHT22;35493;50.276;9.372;2024-01-25T16:10:38;8.70;78.80
49413;DHT22;35493;50.276;9.372;2024-01-25T16:13:12;8.70;79.10
49413;DHT22;35493;50.276;9.372;2024-01-25T16:15:46;8.70;79.20
49413;DHT22;35493;50.276;9.372;2024-01-25T16:18:19;8.60;79.40
49413;DHT22;35493;50.276;9.372;2024-01-25T16:20:46;8.60;79.60
49413;DHT22;35493;50.276;9.372;2024-01-25T16:23:20;8.60;79.70
49413;DHT22;35493;50.276;9.372;2024-01-25T16:25:53;8.60;79.50